createdAt,value
2023-04-11T00:00:33.242Z,21.73
2023-04-11T00:03:02.754Z,26.53
2023-04-11T00:05:32.332Z,9.00
2023-04-11T00:08:00.686Z,25.57
2023-04-11T00:10:28.557Z,14.47
2023-04-11T00:12:56.796Z,19.43
2023-04-11T00:15:26.763Z,16.57
2023-04-11T00:17:55.131Z,14.53
2023-04-11T00:20:23.125Z,17.90
2023-04-11T00:22:54.260Z,16.17
2023-04-11T00:25:22.465Z,26.67
2023-04-11T00:27:50.373Z,25.37
2023-04-11T00:30:18.248Z,16.90
2023-04-11T00:32:46.792Z,7.77
2023-04-11T00:35:14.732Z,5.97
2023-04-11T00:37:44.383Z,12.47
2023-04-11T00:40:17.783Z,21.63
2023-04-11T00:42:45.720Z,19.47
2023-04-11T00:45:14.037Z,14.97
2023-04-11T00:47:42.230Z,21.83
2023-04-11T00:50:13.941Z,16.13
2023-04-11T00:52:42.183Z,19.43
2023-04-11T00:55:10.804Z,13.07
2023-04-11T00:57:41.920Z,18.20
2023-04-11T01:00:11.836Z,29.97
2023-04-11T01:02:43.237Z,24.03
2023-04-11T01:05:12.604Z,21.70
2023-04-11T01:07:41.221Z,15.67
2023-04-11T01:10:10.264Z,20.30
2023-04-11T01:12:39.687Z,21.20
2023-04-11T01:15:08.616Z,18.50
2023-04-11T01:17:36.725Z,14.50
2023-04-11T01:20:07.807Z,23.20
2023-04-11T01:22:35.918Z,36.20
2023-04-11T01:25:05.844Z,16.60
2023-04-11T01:27:34.397Z,24.20
2023-04-11T01:30:02.629Z,19.77
2023-04-11T01:32:30.537Z,23.97
2023-04-11T01:34:58.552Z,21.93
2023-04-11T01:37:26.485Z,21.07
2023-04-11T01:39:54.355Z,12.97
2023-04-11T01:42:24.099Z,15.37
2023-04-11T01:44:52.073Z,11.80
2023-04-11T01:47:19.958Z,30.23
2023-04-11T01:49:48.049Z,17.47
2023-04-11T01:52:15.939Z,25.03
2023-04-11T01:54:43.911Z,14.93
2023-04-11T01:57:11.806Z,12.23
2023-04-11T01:59:41.043Z,18.30
2023-04-11T02:02:09.001Z,12.57
2023-04-11T02:04:36.948Z,13.10
2023-04-11T02:07:04.852Z,17.47
2023-04-11T02:09:32.935Z,19.03
2023-04-11T02:12:01.188Z,12.33
2023-04-11T02:14:30.047Z,17.47
2023-04-11T02:16:59.464Z,16.50
2023-04-11T02:19:27.383Z,14.27
2023-04-11T02:21:55.370Z,8.13
2023-04-11T02:24:23.253Z,14.43
2023-04-11T02:26:51.140Z,12.27
2023-04-11T02:29:19.077Z,15.63
2023-04-11T02:31:49.476Z,17.30
2023-04-11T02:34:18.875Z,15.47
2023-04-11T02:36:46.892Z,16.93
2023-04-11T02:39:14.971Z,5.87
2023-04-11T02:41:43.311Z,12.80
2023-04-11T02:44:11.867Z,11.90
2023-04-11T02:46:39.894Z,18.00
2023-04-11T02:49:07.777Z,11.20
2023-04-11T02:51:37.021Z,14.03
2023-04-11T02:54:06.147Z,15.07
2023-04-11T02:56:34.996Z,26.13
2023-04-11T02:59:02.893Z,10.77
2023-04-11T03:01:31.112Z,9.70
2023-04-11T03:03:59.238Z,15.60
2023-04-11T03:06:28.197Z,13.20
2023-04-11T03:08:57.772Z,22.30
2023-04-11T03:11:25.855Z,8.90
2023-04-11T03:13:53.828Z,24.53
2023-04-11T03:16:21.769Z,15.93
2023-04-11T03:18:49.707Z,12.83
2023-04-11T03:21:17.693Z,21.30
2023-04-11T03:23:45.594Z,14.07
2023-04-11T03:26:15.847Z,11.67
2023-04-11T03:28:43.777Z,11.00
2023-04-11T03:31:12.034Z,8.00
2023-04-11T03:33:40.104Z,10.10
2023-04-11T03:36:08.929Z,12.47
2023-04-11T03:38:36.930Z,10.80
2023-04-11T03:41:05.015Z,15.93
2023-04-11T03:43:34.308Z,13.60
2023-04-11T03:46:02.169Z,18.87
2023-04-11T03:48:31.070Z,26.30
2023-04-11T03:50:59.028Z,17.77
2023-04-11T03:53:26.890Z,15.90
2023-04-11T03:55:54.847Z,17.40
2023-04-11T03:58:22.732Z,20.33
2023-04-11T04:00:52.033Z,7.50
2023-04-11T04:03:20.094Z,5.43
2023-04-11T04:05:48.142Z,5.07
2023-04-11T04:08:16.331Z,10.87
2023-04-11T04:10:44.235Z,19.43
2023-04-11T04:13:12.246Z,9.90
2023-04-11T04:15:40.119Z,6.83
2023-04-11T04:18:09.586Z,14.87
2023-04-11T04:20:37.518Z,10.97
2023-04-11T04:23:05.639Z,19.30
2023-04-11T04:25:33.638Z,22.87
2023-04-11T04:28:01.540Z,21.40
2023-04-11T04:30:29.690Z,20.93
2023-04-11T04:32:59.183Z,19.30
2023-04-11T04:35:28.717Z,14.03
2023-04-11T04:37:56.817Z,29.20
2023-04-11T04:40:26.157Z,10.27
2023-04-11T04:42:58.645Z,34.53
2023-04-11T04:45:27.098Z,29.07
2023-04-11T04:47:55.075Z,22.53
2023-04-11T04:50:23.301Z,19.93
2023-04-11T04:52:52.644Z,20.83
2023-04-11T04:55:20.778Z,23.03
2023-04-11T04:57:48.651Z,27.03
2023-04-11T05:00:17.092Z,23.10
2023-04-11T05:02:45.128Z,16.47
2023-04-11T05:05:14.035Z,24.67
2023-04-11T05:07:42.609Z,20.97
2023-04-11T05:10:12.113Z,29.63
2023-04-11T05:12:40.560Z,15.73
2023-04-11T05:15:11.675Z,15.47
2023-04-11T05:17:39.618Z,31.50
2023-04-11T05:20:09.125Z,12.17
2023-04-11T05:22:38.070Z,25.63
2023-04-11T05:25:08.840Z,24.20
2023-04-11T05:27:38.169Z,28.87
2023-04-11T05:30:07.182Z,34.57
2023-04-11T05:32:35.158Z,22.67
2023-04-11T05:35:03.182Z,27.10
2023-04-11T05:37:32.365Z,21.23
2023-04-11T05:40:00.504Z,25.27
2023-04-11T05:42:28.490Z,44.63
2023-04-11T05:44:57.749Z,35.53
2023-04-11T05:47:26.056Z,27.67
2023-04-11T05:49:54.025Z,38.13
2023-04-11T05:52:22.039Z,22.73
2023-04-11T05:54:49.943Z,25.20
2023-04-11T05:57:18.201Z,20.23
2023-04-11T05:59:49.798Z,25.87
2023-04-11T06:02:19.305Z,21.47
2023-04-11T06:04:47.495Z,26.37
2023-04-11T06:07:15.470Z,19.13
2023-04-11T06:09:44.435Z,28.87
2023-04-11T06:12:12.417Z,13.93
2023-04-11T06:14:40.745Z,17.53
2023-04-11T06:17:09.734Z,18.17
2023-04-11T06:19:39.382Z,20.00
2023-04-11T06:22:07.515Z,16.47
2023-04-11T06:24:36.165Z,14.73
2023-04-11T06:27:04.530Z,19.77
2023-04-11T06:29:32.555Z,10.17
2023-04-11T06:32:00.640Z,17.57
2023-04-11T06:34:28.690Z,14.77
2023-04-11T06:36:58.475Z,29.53
2023-04-11T06:39:26.592Z,19.07
2023-04-11T06:41:54.567Z,22.53
2023-04-11T06:44:22.662Z,17.77
2023-04-11T06:46:50.905Z,34.73
2023-04-11T06:49:19.055Z,15.80
2023-04-11T06:51:50.057Z,20.77
2023-04-11T06:54:19.600Z,10.27
2023-04-11T06:56:47.611Z,10.37
2023-04-11T06:59:15.758Z,14.83
2023-04-11T07:01:44.007Z,10.60
2023-04-11T07:04:12.212Z,18.13
2023-04-11T07:06:40.396Z,10.13
2023-04-11T07:09:09.657Z,20.43
2023-04-11T07:11:39.593Z,12.40
2023-04-11T07:14:07.725Z,14.23
2023-04-11T07:16:35.709Z,15.10
2023-04-11T07:19:06.132Z,17.20
2023-04-11T07:21:34.222Z,14.63
2023-04-11T07:24:02.229Z,11.03
2023-04-11T07:26:32.705Z,11.93
2023-04-11T07:29:02.239Z,22.80
2023-04-11T07:31:31.034Z,16.40
2023-04-11T07:33:59.208Z,27.67
2023-04-11T07:36:27.739Z,14.87
2023-04-11T07:38:55.890Z,10.23
2023-04-11T07:41:23.896Z,10.57
2023-04-11T07:43:51.913Z,18.47
2023-04-11T07:46:21.474Z,17.10
2023-04-11T07:48:49.616Z,11.33
2023-04-11T07:51:19.025Z,12.40
2023-04-11T07:53:47.152Z,16.47
2023-04-11T07:56:16.492Z,14.00
2023-04-11T07:58:44.613Z,16.57
2023-04-11T08:01:22.746Z,18.60
2023-04-11T08:03:51.048Z,18.63
2023-04-11T08:06:19.135Z,25.83
2023-04-11T08:08:47.551Z,22.77
2023-04-11T08:11:15.568Z,13.57
2023-04-11T08:13:43.617Z,12.40
2023-04-11T08:16:12.520Z,18.17
2023-04-11T08:18:43.206Z,14.33
2023-04-11T08:21:12.614Z,12.50
2023-04-11T08:23:42.432Z,11.80
2023-04-11T08:26:13.089Z,12.00
2023-04-11T08:28:43.050Z,23.43
2023-04-11T08:31:13.476Z,13.10
2023-04-11T08:33:42.999Z,22.53
2023-04-11T08:36:11.744Z,17.20
2023-04-11T08:38:39.854Z,18.53
2023-04-11T08:41:08.040Z,26.97
2023-04-11T08:43:36.049Z,19.17
2023-04-11T08:46:04.184Z,18.93
2023-04-11T08:48:32.494Z,17.93
2023-04-11T08:51:01.955Z,16.37
2023-04-11T08:53:30.282Z,20.63
2023-04-11T08:55:59.942Z,20.87
2023-04-11T08:58:28.378Z,15.80
2023-04-11T09:00:56.273Z,14.17
2023-04-11T09:03:24.446Z,12.87
2023-04-11T09:05:52.521Z,15.93
2023-04-11T09:08:21.865Z,7.93
2023-04-11T09:10:50.100Z,19.57
2023-04-11T09:13:22.841Z,21.23
2023-04-11T09:16:05.476Z,17.07
2023-04-11T09:18:34.114Z,11.57
2023-04-11T09:21:04.274Z,11.77
2023-04-11T09:23:33.570Z,8.73
2023-04-11T09:26:01.495Z,11.77
2023-04-11T09:28:29.687Z,12.57
2023-04-11T09:30:57.922Z,12.57
2023-04-11T09:33:29.967Z,14.13
2023-04-11T09:35:57.903Z,12.87
2023-04-11T09:38:30.840Z,9.43
2023-04-11T09:41:00.762Z,10.73
2023-04-11T09:43:28.712Z,20.03
2023-04-11T09:46:10.197Z,13.63
2023-04-11T09:49:01.130Z,13.30
2023-04-11T09:53:57.999Z,14.00
2023-04-11T09:56:28.433Z,11.30
2023-04-11T09:58:56.562Z,18.03
2023-04-11T10:01:25.132Z,11.20
2023-04-11T10:03:54.149Z,12.00
2023-04-11T10:06:26.430Z,15.83
2023-04-11T10:08:54.935Z,21.17
2023-04-11T10:11:24.398Z,7.77
2023-04-11T10:13:53.800Z,15.03
2023-04-11T10:16:24.146Z,14.87
2023-04-11T10:19:28.555Z,11.37
2023-04-11T10:21:56.820Z,13.23
2023-04-11T10:24:26.762Z,11.30
2023-04-11T10:26:55.635Z,7.27
2023-04-11T10:29:53.583Z,13.20
2023-04-11T10:32:22.740Z,13.10
2023-04-11T10:35:33.140Z,11.07
2023-04-11T10:38:01.134Z,12.33
2023-04-11T10:40:28.984Z,8.70
2023-04-11T10:42:57.467Z,9.37
2023-04-11T10:45:27.355Z,11.03
2023-04-11T10:48:12.883Z,10.63
2023-04-11T10:50:42.397Z,9.07
2023-04-11T10:53:14.387Z,14.13
2023-04-11T10:55:47.179Z,12.93
2023-04-11T10:58:19.136Z,6.40
2023-04-11T11:01:32.419Z,6.37
2023-04-11T11:04:12.311Z,10.23
2023-04-11T11:06:47.286Z,10.17
2023-04-11T11:09:23.259Z,9.17
2023-04-11T11:12:06.673Z,2.43
2023-04-11T11:14:34.716Z,7.20
2023-04-11T11:17:03.082Z,3.03
2023-04-11T11:19:33.382Z,3.97
2023-04-11T11:22:04.117Z,4.27
2023-04-11T11:24:32.813Z,5.27
2023-04-11T11:27:00.786Z,8.63
2023-04-11T11:29:32.290Z,6.80
2023-04-11T11:32:01.310Z,4.10
2023-04-11T11:34:30.034Z,6.67
2023-04-11T11:36:59.609Z,9.23
2023-04-11T11:39:27.556Z,2.87
2023-04-11T11:41:56.143Z,3.03
2023-04-11T11:44:24.531Z,6.97
2023-04-11T11:47:02.549Z,2.80
2023-04-11T11:49:44.722Z,5.90
2023-04-11T11:52:14.177Z,1.83
2023-04-11T11:54:46.630Z,4.57
2023-04-11T11:57:22.786Z,3.87
2023-04-11T11:59:54.491Z,1.43
2023-04-11T12:02:23.544Z,5.00
2023-04-11T12:04:52.098Z,2.37
2023-04-11T12:07:23.686Z,1.93
2023-04-11T12:09:57.086Z,5.70
2023-04-11T12:12:25.387Z,2.27
2023-04-11T12:14:54.595Z,2.67
2023-04-11T12:17:22.583Z,4.27
2023-04-11T12:19:50.614Z,3.93
2023-04-11T12:22:18.894Z,5.73
2023-04-11T12:24:48.299Z,1.50
2023-04-11T12:27:16.342Z,6.47
2023-04-11T12:29:44.390Z,2.67
2023-04-11T12:32:12.327Z,3.23
2023-04-11T12:34:40.349Z,4.80
2023-04-11T12:37:08.948Z,2.17
2023-04-11T12:39:37.810Z,5.40
2023-04-11T12:42:07.974Z,2.77
2023-04-11T12:44:36.511Z,3.70
2023-04-11T12:47:04.444Z,4.40
2023-04-11T12:49:32.321Z,2.27
2023-04-11T12:52:00.242Z,2.57
2023-04-11T12:54:28.310Z,3.00
2023-04-11T12:56:58.168Z,0.83
2023-04-11T12:59:28.177Z,4.90
2023-04-11T13:01:57.738Z,2.17
2023-04-11T13:04:25.981Z,5.90
2023-04-11T13:06:54.334Z,3.07
2023-04-11T13:09:22.465Z,1.63
2023-04-11T13:11:50.554Z,2.70
2023-04-11T13:14:18.644Z,3.90
2023-04-11T13:16:48.394Z,3.47
2023-04-11T13:19:17.366Z,5.43
2023-04-11T13:21:46.204Z,5.43
2023-04-11T13:24:14.381Z,1.60
2023-04-11T13:26:44.875Z,2.63
2023-04-11T13:29:13.016Z,2.50
2023-04-11T13:31:41.016Z,1.37
2023-04-11T13:34:10.364Z,1.13
2023-04-11T13:36:38.325Z,3.80
2023-04-11T13:39:07.478Z,7.60
2023-04-11T13:41:35.603Z,5.97
2023-04-11T13:44:03.803Z,6.70
2023-04-11T13:46:31.821Z,2.57
2023-04-11T13:49:00.212Z,2.43
2023-04-11T13:51:30.047Z,4.00
2023-04-11T13:53:57.997Z,6.03
2023-04-11T13:56:26.565Z,5.90
2023-04-11T13:58:54.770Z,3.90
2023-04-11T14:01:23.112Z,2.13
2023-04-11T14:03:51.293Z,1.60
2023-04-11T14:06:19.764Z,1.27
2023-04-11T14:08:50.660Z,2.70
2023-04-11T14:11:19.148Z,4.57
2023-04-11T14:13:47.245Z,3.77
2023-04-11T14:16:15.506Z,2.80
2023-04-11T14:18:44.729Z,2.93
2023-04-11T14:21:12.761Z,2.30
2023-04-11T14:23:41.393Z,5.60
2023-04-11T14:26:11.130Z,5.60
2023-04-11T14:28:41.153Z,1.70
2023-04-11T14:31:09.829Z,4.70
2023-04-11T14:33:37.938Z,4.80
2023-04-11T14:36:06.349Z,2.00
2023-04-11T14:38:35.802Z,3.50
2023-04-11T14:41:04.925Z,4.80
2023-04-11T14:43:34.561Z,3.63
2023-04-11T14:46:02.463Z,4.77
2023-04-11T14:48:30.560Z,2.20
2023-04-11T14:50:58.413Z,6.50
2023-04-11T14:53:26.393Z,3.00
2023-04-11T14:55:54.263Z,17.83
2023-04-11T14:58:22.147Z,1.03
2023-04-11T15:00:51.545Z,0.93
2023-04-11T15:03:20.212Z,3.00
2023-04-11T15:05:48.316Z,0.63
2023-04-11T15:08:16.263Z,0.20
2023-04-11T15:10:44.198Z,0.57
2023-04-11T15:13:13.063Z,0.10
2023-04-11T15:15:41.197Z,0.10
2023-04-11T15:18:23.696Z,0.30
2023-04-11T15:20:52.494Z,0.10
2023-04-11T15:23:20.668Z,0.10
2023-04-11T15:25:48.935Z,7.43
2023-04-11T15:28:16.851Z,0.10
2023-04-11T15:30:48.338Z,0.20
2023-04-11T15:33:17.315Z,0.70
2023-04-11T15:35:47.014Z,0.13
2023-04-11T15:38:20.130Z,0.37
2023-04-11T15:40:50.537Z,1.23
2023-04-11T15:43:18.517Z,0.50
2023-04-11T15:45:46.376Z,0.10
2023-04-11T15:48:14.314Z,0.10
2023-04-11T15:50:42.364Z,0.10
2023-04-11T15:53:11.888Z,0.20
2023-04-11T15:55:40.323Z,0.40
2023-04-11T15:58:08.205Z,2.63
2023-04-11T16:00:36.465Z,3.90
2023-04-11T16:03:04.748Z,0.10
2023-04-11T16:05:32.853Z,0.10
2023-04-11T16:08:00.745Z,0.10
2023-04-11T16:10:31.098Z,0.10
2023-04-11T16:12:59.057Z,0.10
2023-04-11T16:15:26.944Z,0.90
2023-04-11T16:17:54.811Z,0.10
2023-04-11T16:20:22.960Z,0.20
2023-04-11T16:22:50.947Z,0.10
2023-04-11T16:25:21.205Z,0.30
2023-04-11T16:27:51.309Z,0.10
2023-04-11T16:30:19.328Z,0.23
2023-04-11T16:32:47.277Z,0.10
2023-04-11T16:35:15.485Z,0.10
2023-04-11T16:37:43.551Z,0.20
2023-04-11T16:40:12.165Z,0.40
2023-04-11T16:42:40.090Z,0.10
2023-04-11T16:45:10.928Z,0.20
2023-04-11T16:47:39.103Z,0.10
2023-04-11T16:50:08.029Z,0.10
2023-04-11T16:52:36.129Z,0.73
2023-04-11T16:55:04.080Z,10.83
2023-04-11T16:57:33.344Z,1.70
2023-04-11T17:00:06.697Z,0.30
2023-04-11T17:02:36.106Z,1.20
2023-04-11T17:05:04.099Z,0.60
2023-04-11T17:07:33.341Z,0.53
2023-04-11T17:10:01.482Z,28.33
2023-04-11T17:12:30.009Z,4.73
2023-04-11T17:14:59.354Z,17.77
2023-04-11T17:17:27.329Z,25.57
2023-04-11T17:19:57.049Z,23.53
2023-04-11T17:22:25.324Z,26.17
2023-04-11T17:24:54.079Z,28.37
2023-04-11T17:27:22.285Z,31.13
2023-04-11T17:29:50.207Z,42.30
2023-04-11T17:32:18.082Z,20.03
2023-04-11T17:34:47.631Z,23.10
2023-04-11T17:37:16.890Z,28.53
2023-04-11T17:39:46.386Z,39.63
2023-04-11T17:42:14.760Z,25.90
2023-04-11T17:44:42.830Z,36.07
2023-04-11T17:47:10.798Z,26.50
2023-04-11T17:49:38.751Z,33.70
2023-04-11T17:52:06.650Z,29.43
2023-04-11T17:54:36.483Z,21.17
2023-04-11T17:57:04.448Z,9.67
2023-04-11T17:59:32.811Z,23.03
2023-04-11T18:02:00.911Z,18.93
2023-04-11T18:04:29.398Z,15.43
2023-04-11T18:06:58.219Z,19.20
2023-04-11T18:09:28.068Z,20.83
2023-04-11T18:11:58.343Z,15.93
2023-04-11T18:14:26.288Z,21.37
2023-04-11T18:16:54.163Z,22.50
2023-04-11T18:19:22.023Z,18.37
2023-04-11T18:21:50.704Z,13.30
2023-04-11T18:24:18.622Z,21.90
2023-04-11T18:26:47.050Z,26.37
2023-04-11T18:29:16.327Z,30.17
2023-04-11T18:31:44.367Z,8.27
2023-04-11T18:34:12.449Z,22.73
2023-04-11T18:36:40.681Z,16.53
2023-04-11T18:39:09.071Z,16.87
2023-04-11T18:41:37.033Z,13.83
2023-04-11T18:44:06.069Z,11.07
2023-04-11T18:46:37.095Z,17.77
2023-04-11T18:49:05.988Z,14.00
2023-04-11T18:51:35.642Z,15.10
2023-04-11T18:54:03.511Z,4.07
2023-04-11T18:56:31.568Z,10.20
2023-04-11T18:59:05.991Z,13.17
2023-04-11T19:01:38.607Z,22.00
2023-04-11T19:04:07.758Z,28.30
2023-04-11T19:06:36.394Z,26.20
2023-04-11T19:09:04.541Z,29.10
2023-04-11T19:11:32.408Z,17.63
2023-04-11T19:14:01.448Z,20.67
2023-04-11T19:16:29.992Z,13.27
2023-04-11T19:18:59.555Z,17.23
2023-04-11T19:21:27.967Z,33.33
2023-04-11T19:23:57.715Z,25.53
2023-04-11T19:26:27.445Z,21.00
2023-04-11T19:28:55.472Z,21.83
2023-04-11T19:31:25.730Z,20.93
2023-04-11T19:33:54.413Z,17.77
2023-04-11T19:36:23.821Z,20.87
2023-04-11T19:38:51.956Z,17.30
2023-04-11T19:41:20.476Z,28.37
2023-04-11T19:43:48.655Z,17.40
2023-04-11T19:46:16.838Z,38.70
2023-04-11T19:48:44.920Z,21.63
2023-04-11T19:51:12.988Z,17.90
2023-04-11T19:53:42.252Z,15.73
2023-04-11T19:56:11.011Z,24.03
2023-04-11T19:58:39.966Z,21.67
2023-04-11T20:01:08.341Z,21.20
2023-04-11T20:03:36.938Z,24.77
2023-04-11T20:06:05.927Z,17.83
2023-04-11T20:08:33.943Z,38.03
2023-04-11T20:11:03.884Z,11.73
2023-04-11T20:13:33.674Z,17.70
2023-04-11T20:16:04.711Z,21.57
2023-04-11T20:18:33.378Z,11.33
2023-04-11T20:21:03.068Z,19.27
2023-04-11T20:23:33.514Z,21.23
2023-04-11T20:26:01.403Z,29.57
2023-04-11T20:28:30.994Z,22.67
2023-04-11T20:30:59.936Z,19.30
2023-04-11T20:33:28.688Z,18.67
2023-04-11T20:35:57.045Z,35.67
2023-04-11T20:38:26.416Z,13.73
2023-04-11T20:40:54.336Z,22.27
2023-04-11T20:43:25.314Z,17.80
2023-04-11T20:45:57.601Z,25.07
2023-04-11T20:48:25.996Z,19.93
2023-04-11T20:50:55.825Z,14.93
2023-04-11T20:53:24.387Z,28.30
2023-04-11T20:55:52.963Z,22.73
2023-04-11T20:58:21.525Z,22.37
2023-04-11T21:00:49.422Z,27.27
2023-04-11T21:03:18.814Z,19.83
2023-04-11T21:05:48.241Z,20.00
2023-04-11T21:08:16.179Z,17.83
2023-04-11T21:10:44.180Z,16.57
2023-04-11T21:13:12.059Z,22.33
2023-04-11T21:15:40.077Z,13.73
2023-04-11T21:18:08.040Z,14.67
2023-04-11T21:20:37.280Z,9.47
2023-04-11T21:23:05.201Z,7.93
2023-04-11T21:25:33.293Z,14.60
2023-04-11T21:28:01.268Z,17.17
2023-04-11T21:30:30.591Z,13.73
2023-04-11T21:32:58.564Z,7.20
2023-04-11T21:35:26.737Z,10.67
2023-04-11T21:37:56.006Z,14.73
2023-04-11T21:40:23.924Z,10.40
2023-04-11T21:42:51.796Z,22.43
2023-04-11T21:45:19.838Z,15.67
2023-04-11T21:47:47.717Z,12.63
2023-04-11T21:50:15.727Z,18.57
2023-04-11T21:52:44.559Z,18.13
2023-04-11T21:55:13.907Z,7.37
2023-04-11T21:57:41.824Z,18.80
2023-04-11T22:00:11.862Z,7.93
2023-04-11T22:02:39.939Z,19.10
2023-04-11T22:05:09.880Z,19.13
2023-04-11T22:07:47.417Z,14.87
2023-04-11T22:10:23.822Z,19.10
2023-04-11T22:12:53.960Z,6.80
2023-04-11T22:15:21.975Z,11.43
2023-04-11T22:17:51.216Z,21.80
2023-04-11T22:20:20.010Z,13.07
2023-04-11T22:22:47.966Z,14.10
2023-04-11T22:25:18.453Z,12.43
2023-04-11T22:27:46.425Z,20.13
2023-04-11T22:30:16.478Z,14.40
2023-04-11T22:32:44.454Z,23.97
2023-04-11T22:35:13.617Z,12.63
2023-04-11T22:37:41.616Z,5.20
2023-04-11T22:40:11.794Z,10.57
2023-04-11T22:42:41.701Z,5.40
2023-04-11T22:45:10.715Z,5.53
2023-04-11T22:47:40.184Z,5.03
2023-04-11T22:50:09.437Z,8.57
2023-04-11T22:52:37.834Z,11.30
2023-04-11T22:55:07.372Z,8.97
2023-04-11T22:57:36.882Z,28.43
2023-04-11T23:00:09.069Z,25.17
2023-04-11T23:02:37.516Z,7.90
2023-04-11T23:05:06.069Z,12.53
2023-04-11T23:07:34.438Z,5.77
2023-04-11T23:10:04.402Z,10.47
2023-04-11T23:12:32.404Z,8.47
2023-04-11T23:15:02.437Z,5.27
2023-04-11T23:17:31.893Z,6.07
2023-04-11T23:20:01.834Z,7.27
2023-04-11T23:22:29.749Z,7.00
2023-04-11T23:24:57.820Z,6.03
2023-04-11T23:27:25.715Z,17.70
2023-04-11T23:29:54.304Z,7.37
2023-04-11T23:32:22.964Z,5.47
2023-04-11T23:34:52.414Z,12.87
2023-04-11T23:37:20.411Z,12.23
2023-04-11T23:39:49.049Z,14.57
2023-04-11T23:42:16.966Z,7.47
2023-04-11T23:44:44.839Z,9.90
2023-04-11T23:47:12.692Z,3.57
2023-04-11T23:49:40.857Z,15.70
2023-04-11T23:52:11.164Z,12.43
2023-04-11T23:54:39.082Z,14.70
2023-04-11T23:57:07.188Z,12.97
2023-04-11T23:59:35.074Z,12.20
